Archival Weather

Norman Y Mineta San Jose Intl

San Jose, California (KSJC)

Report from: Wednesday, February 21, 2024 3:00 AM PST
Current time: Monday, June 17, 2024 1:02 AM PDT

Current weather – Weather history – Daily summaries
Weather forecast

Present weatherMist
Temperature8.9°C (48.0°F)
Wind chill8.3°C (47.0°F)
Dew point7.2°C (45.0°F)
Winds 3 kts (1.5 m/s, 3.5 mph) West-Northwest (290°)
Visibility3 mi. (4.8 km)
Clouds Few clouds 2,000 ft. (610 m)
Scattered clouds 4,400 ft. (1,341 m)
Altimeter30.09 in.Hg (1019 mB)
Relative humidity89 %
Density altitude-779 ft. (-237 m)
Remarks Fully automated report
Automated weather observing station with precipitation discriminator
Flight conditions Marginal Visual Meteorological Conditions
Raw dataKSJC 211100Z AUTO 29003KT 3SM BR FEW020 SCT044 09/07 A3009 RMK AO2 T00890072
An error has occurred. This application may no longer respond until reloaded. Reload 🗙